createdAt,value
2018-12-14T00:01:09.761Z,101430.00
2018-12-14T00:03:42.393Z,101438.00
2018-12-14T00:06:29.436Z,101427.00
2018-12-14T00:09:25.054Z,101430.00
2018-12-14T00:12:12.640Z,101421.00
2018-12-14T00:14:45.901Z,101436.00
2018-12-14T00:17:17.147Z,101437.00
2018-12-14T00:20:00.849Z,101423.00
2018-12-14T00:22:33.169Z,101426.00
2018-12-14T00:25:02.440Z,101434.00
2018-12-14T00:27:57.169Z,101433.00
2018-12-14T00:30:38.374Z,101410.00
2018-12-14T00:33:10.704Z,101426.00
2018-12-14T00:35:45.538Z,101436.00
2018-12-14T00:38:16.821Z,101427.00
2018-12-14T00:40:47.356Z,101432.00
2018-12-14T00:43:30.621Z,101420.00
2018-12-14T00:49:06.709Z,101429.00
2018-12-14T00:51:42.250Z,101432.00
2018-12-14T00:54:11.623Z,101427.00
2018-12-14T00:56:53.546Z,101424.00
2018-12-14T00:59:22.858Z,101433.00
2018-12-14T01:02:10.197Z,101422.00
2018-12-14T01:05:05.035Z,101437.00
2018-12-14T01:07:50.464Z,101439.00
2018-12-14T01:10:33.890Z,101442.00
2018-12-14T01:13:09.330Z,101434.00
2018-12-14T01:15:48.289Z,101439.00
2018-12-14T01:18:29.390Z,101444.00
2018-12-14T01:21:06.904Z,101448.00
2018-12-14T01:26:42.070Z,101433.00
2018-12-14T01:29:37.753Z,101440.00
2018-12-14T01:35:14.420Z,101447.00
2018-12-14T01:40:53.334Z,101446.00
2018-12-14T01:43:28.754Z,101450.00
2018-12-14T01:46:04.242Z,101455.00
2018-12-14T01:48:33.496Z,101458.00
2018-12-14T01:51:06.942Z,101450.00
2018-12-14T01:57:04.604Z,101453.00
2018-12-14T01:59:39.790Z,101446.00
2018-12-14T02:02:13.380Z,101457.00
2018-12-14T02:04:51.011Z,101450.00
2018-12-14T02:07:23.637Z,101448.00
2018-12-14T02:09:54.774Z,101401.00
2018-12-14T02:12:29.712Z,101456.00
2018-12-14T02:15:21.209Z,101445.00
2018-12-14T02:18:15.027Z,101436.00
2018-12-14T02:20:47.413Z,101439.00
2018-12-14T02:23:19.912Z,101438.00
2018-12-14T02:25:56.599Z,101441.00
2018-12-14T02:28:29.822Z,101442.00
2018-12-14T02:31:05.341Z,101444.00
2018-12-14T02:34:03.170Z,101442.00
2018-12-14T02:36:47.037Z,101438.00
2018-12-14T02:39:16.464Z,101439.00
2018-12-14T02:41:45.888Z,101440.00
2018-12-14T02:44:15.176Z,101441.00
2018-12-14T02:46:56.325Z,101432.00
2018-12-14T02:49:29.622Z,101432.00
2018-12-14T02:52:06.172Z,101436.00
2018-12-14T02:54:53.806Z,101428.00
2018-12-14T03:00:25.734Z,101434.00
2018-12-14T03:03:03.687Z,101433.00
2018-12-14T03:05:34.569Z,101430.00
2018-12-14T03:08:15.703Z,101429.00
2018-12-14T03:10:48.574Z,101428.00
2018-12-14T03:13:21.210Z,101439.00
2018-12-14T03:15:51.883Z,101338.00
2018-12-14T03:18:24.369Z,101368.00
2018-12-14T03:20:59.582Z,101438.00
2018-12-14T03:23:42.448Z,101436.00
2018-12-14T03:26:17.365Z,101434.00
2018-12-14T03:28:50.296Z,101423.00
2018-12-14T03:31:23.578Z,101425.00
2018-12-14T03:33:58.587Z,101430.00
2018-12-14T03:36:29.859Z,101424.00
2018-12-14T03:39:01.267Z,101412.00
2018-12-14T03:41:36.175Z,101414.00
2018-12-14T03:44:28.462Z,101405.00
2018-12-14T03:46:59.361Z,101412.00
2018-12-14T03:49:34.436Z,101415.00
2018-12-14T03:52:07.086Z,101405.00
2018-12-14T03:54:41.918Z,101407.00
2018-12-14T03:57:12.480Z,101330.00
2018-12-14T03:59:43.687Z,101420.00
2018-12-14T04:02:13.055Z,101415.00
2018-12-14T04:04:48.064Z,101418.00
2018-12-14T04:07:22.852Z,101415.00
2018-12-14T04:09:56.001Z,101414.00
2018-12-14T04:12:31.027Z,101416.00
2018-12-14T04:15:06.759Z,101420.00
2018-12-14T04:17:41.953Z,101416.00
2018-12-14T04:20:17.485Z,101426.00
2018-12-14T04:22:48.906Z,101414.00
2018-12-14T04:28:28.972Z,101418.00
2018-12-14T04:31:03.970Z,101414.00
2018-12-14T04:33:45.446Z,101417.00
2018-12-14T04:36:18.126Z,101419.00
2018-12-14T04:38:53.475Z,101407.00
2018-12-14T04:44:25.890Z,101417.00
2018-12-14T04:47:19.988Z,101412.00
2018-12-14T04:49:55.775Z,101428.00
2018-12-14T04:52:31.139Z,101419.00
2018-12-14T04:55:04.025Z,101427.00
2018-12-14T04:57:33.369Z,101417.00
2018-12-14T05:00:12.387Z,101419.00
2018-12-14T05:02:45.030Z,101371.00
2018-12-14T05:05:26.406Z,101429.00
2018-12-14T05:07:59.016Z,101429.00
2018-12-14T05:10:33.887Z,101439.00
2018-12-14T05:13:09.498Z,101427.00
2018-12-14T05:16:03.178Z,101422.00
2018-12-14T05:18:51.202Z,101430.00
2018-12-14T05:21:23.570Z,101416.00
2018-12-14T05:24:00.393Z,101422.00
2018-12-14T05:26:41.919Z,101424.00
2018-12-14T05:32:20.306Z,101440.00
2018-12-14T05:34:52.642Z,101430.00
2018-12-14T05:40:32.200Z,101351.00
2018-12-14T05:43:21.882Z,101447.00
2018-12-14T05:45:51.367Z,101444.00
2018-12-14T05:48:24.081Z,101449.00
2018-12-14T05:50:59.421Z,101442.00
2018-12-14T05:53:32.233Z,101440.00
2018-12-14T05:56:17.580Z,101448.00
2018-12-14T05:58:56.932Z,101443.00
2018-12-14T06:01:33.874Z,101453.00
2018-12-14T06:04:10.180Z,101453.00
2018-12-14T06:07:08.109Z,101460.00
2018-12-14T06:09:50.096Z,101456.00
2018-12-14T06:12:21.781Z,101458.00
2018-12-14T06:15:09.595Z,101458.00
2018-12-14T06:17:42.634Z,101459.00
2018-12-14T06:20:14.950Z,101466.00
2018-12-14T06:26:08.731Z,101464.00
2018-12-14T06:28:44.148Z,101454.00
2018-12-14T06:31:25.302Z,101479.00
2018-12-14T06:33:57.812Z,101480.00
2018-12-14T06:36:44.124Z,101479.00
2018-12-14T06:39:29.793Z,101471.00
2018-12-14T06:42:03.199Z,101481.00
2018-12-14T06:44:38.696Z,101483.00
2018-12-14T06:47:10.925Z,101485.00
2018-12-14T06:49:43.561Z,101490.00
2018-12-14T06:52:16.032Z,101490.00
2018-12-14T06:57:49.975Z,101492.00
2018-12-14T07:00:29.774Z,101502.00
2018-12-14T07:03:04.739Z,101499.00
2018-12-14T07:05:37.953Z,101497.00
2018-12-14T07:08:26.070Z,101516.00
2018-12-14T07:10:56.766Z,101510.00
2018-12-14T07:13:34.295Z,101506.00
2018-12-14T07:16:05.350Z,101513.00
2018-12-14T07:18:41.645Z,101514.00
2018-12-14T07:21:14.347Z,101514.00
2018-12-14T07:23:49.686Z,101520.00
2018-12-14T07:26:31.054Z,101522.00
2018-12-14T07:29:07.013Z,101522.00
2018-12-14T07:31:40.290Z,101516.00
2018-12-14T07:34:17.771Z,101527.00
2018-12-14T07:36:56.863Z,101529.00
2018-12-14T07:39:28.021Z,101532.00
2018-12-14T07:41:59.294Z,101531.00
2018-12-14T07:44:34.640Z,101530.00
2018-12-14T07:47:11.780Z,101543.00
2018-12-14T07:49:44.818Z,101532.00
2018-12-14T07:52:17.139Z,101537.00
2018-12-14T07:55:13.218Z,101542.00
2018-12-14T07:57:50.258Z,101533.00
2018-12-14T08:00:23.348Z,101546.00
2018-12-14T08:02:55.649Z,101554.00
2018-12-14T08:05:26.312Z,101552.00
2018-12-14T08:11:03.040Z,101562.00
2018-12-14T08:13:38.582Z,101562.00
2018-12-14T08:19:17.611Z,101517.00
2018-12-14T08:25:18.936Z,101569.00
2018-12-14T08:27:51.310Z,101570.00
2018-12-14T08:30:26.270Z,101579.00
2018-12-14T08:33:03.692Z,101582.00
2018-12-14T08:36:03.561Z,101577.00
2018-12-14T08:38:39.925Z,101585.00
2018-12-14T08:44:13.970Z,101596.00
2018-12-14T08:46:43.309Z,101589.00
2018-12-14T08:49:12.596Z,101597.00
2018-12-14T08:51:43.906Z,101593.00
2018-12-14T08:54:13.257Z,101593.00
2018-12-14T08:56:42.545Z,101594.00
2018-12-14T08:59:23.908Z,101592.00
2018-12-14T09:01:53.135Z,101598.00
2018-12-14T09:04:22.424Z,101598.00
2018-12-14T09:06:52.694Z,101591.00
2018-12-14T09:09:21.949Z,101597.00
2018-12-14T09:11:51.225Z,101607.00
2018-12-14T09:14:20.520Z,101596.00
2018-12-14T09:16:49.877Z,101602.00
2018-12-14T09:19:19.123Z,101606.00
2018-12-14T09:21:48.649Z,101607.00
2018-12-14T09:24:25.622Z,101621.00
2018-12-14T09:26:55.009Z,101618.00
2018-12-14T09:29:25.310Z,101625.00
2018-12-14T09:31:54.867Z,101633.00
2018-12-14T09:34:24.136Z,101619.00
2018-12-14T09:36:53.588Z,101615.00
2018-12-14T09:39:31.640Z,101622.00
2018-12-14T09:42:01.024Z,101630.00
2018-12-14T09:44:30.288Z,101625.00
2018-12-14T09:46:59.627Z,101620.00
2018-12-14T09:49:28.947Z,101621.00
2018-12-14T09:51:58.304Z,101632.00
2018-12-14T09:54:27.621Z,101620.00
2018-12-14T09:56:56.905Z,101621.00
2018-12-14T09:59:26.215Z,101615.00
2018-12-14T10:01:55.664Z,101618.00
2018-12-14T10:04:24.978Z,101620.00
2018-12-14T10:06:54.639Z,101619.00
2018-12-14T10:09:24.024Z,101615.00
2018-12-14T10:11:55.248Z,101622.00
2018-12-14T10:14:24.850Z,101603.00
2018-12-14T10:16:54.161Z,101613.00
2018-12-14T10:19:26.682Z,101612.00
2018-12-14T10:22:02.184Z,101616.00
2018-12-14T10:24:36.236Z,101614.00
2018-12-14T10:27:11.848Z,101605.00
2018-12-14T10:29:44.684Z,101604.00
2018-12-14T10:32:17.266Z,101603.00
2018-12-14T10:34:47.692Z,101603.00
2018-12-14T10:37:20.069Z,101607.00
2018-12-14T10:39:57.789Z,101595.00
2018-12-14T10:42:47.842Z,101599.00
2018-12-14T10:45:24.288Z,101589.00
2018-12-14T10:48:03.487Z,101597.00
2018-12-14T10:50:39.297Z,101596.00
2018-12-14T10:56:07.309Z,101580.00
2018-12-14T10:58:36.591Z,101592.00
2018-12-14T11:02:12.991Z,101591.00
2018-12-14T11:04:42.541Z,101586.00
2018-12-14T11:07:12.033Z,101576.00
2018-12-14T11:09:41.542Z,101574.00
2018-12-14T11:12:12.172Z,101582.00
2018-12-14T11:14:41.496Z,101566.00
2018-12-14T11:17:10.957Z,101574.00
2018-12-14T11:19:41.260Z,101577.00
2018-12-14T11:22:10.579Z,101578.00
2018-12-14T11:24:39.868Z,101577.00
2018-12-14T11:27:17.905Z,101577.00
2018-12-14T11:29:50.970Z,101584.00
2018-12-14T11:32:20.270Z,101578.00
2018-12-14T11:34:53.362Z,101570.00
2018-12-14T11:37:22.617Z,101571.00
2018-12-14T11:39:53.068Z,101568.00
2018-12-14T11:42:23.433Z,101575.00
2018-12-14T11:44:52.696Z,101571.00
2018-12-14T11:47:22.084Z,101565.00
2018-12-14T11:49:51.347Z,101561.00
2018-12-14T11:52:20.662Z,101574.00
2018-12-14T11:54:49.998Z,101555.00
2018-12-14T11:57:19.602Z,101572.00
2018-12-14T12:03:00.177Z,101563.00
2018-12-14T12:11:51.342Z,101570.00
2018-12-14T12:17:49.575Z,101570.00
2018-12-14T12:20:22.573Z,101565.00
2018-12-14T12:22:52.915Z,101560.00
2018-12-14T12:25:25.428Z,101564.00
2018-12-14T12:27:59.121Z,101567.00
2018-12-14T12:30:37.857Z,101575.00
2018-12-14T12:33:10.840Z,101575.00
2018-12-14T12:35:43.389Z,101561.00
2018-12-14T12:38:20.466Z,101567.00
2018-12-14T12:40:54.042Z,101566.00
2018-12-14T12:43:33.016Z,101563.00
2018-12-14T12:46:10.308Z,101561.00
2018-12-14T12:48:42.037Z,101564.00
2018-12-14T12:51:13.170Z,101556.00
2018-12-14T12:56:47.787Z,101571.00
2018-12-14T13:02:25.529Z,101570.00
2018-12-14T13:04:59.625Z,101570.00
2018-12-14T13:10:36.695Z,101556.00
2018-12-14T13:13:11.723Z,101562.00
2018-12-14T13:18:49.219Z,101560.00
2018-12-14T13:24:50.443Z,101549.00
2018-12-14T13:27:22.838Z,101559.00
2018-12-14T13:33:05.082Z,101565.00
2018-12-14T13:35:38.083Z,101565.00
2018-12-14T13:38:13.408Z,101570.00
2018-12-14T13:40:46.915Z,101565.00
2018-12-14T13:43:18.281Z,101572.00
2018-12-14T13:45:48.807Z,101537.00
2018-12-14T13:48:47.249Z,101576.00
2018-12-14T13:51:20.012Z,101582.00
2018-12-14T13:54:13.904Z,101582.00
2018-12-14T13:56:43.199Z,101592.00
2018-12-14T13:59:18.499Z,101590.00
2018-12-14T14:02:06.031Z,101597.00
2018-12-14T14:04:35.938Z,101606.00
2018-12-14T14:07:24.527Z,101594.00
2018-12-14T14:09:59.497Z,101601.00
2018-12-14T14:12:52.996Z,101605.00
2018-12-14T14:15:50.662Z,101615.00
2018-12-14T14:18:24.880Z,101618.00
2018-12-14T14:20:59.936Z,101616.00
2018-12-14T14:23:35.562Z,101614.00
2018-12-14T14:26:11.209Z,101620.00
2018-12-14T14:28:46.310Z,101632.00
2018-12-14T14:31:19.544Z,101629.00
2018-12-14T14:33:54.712Z,101633.00
2018-12-14T14:36:30.384Z,101635.00
2018-12-14T14:39:04.203Z,101643.00
2018-12-14T14:41:41.189Z,101638.00
2018-12-14T14:44:14.115Z,101646.00
2018-12-14T14:46:49.718Z,101645.00
2018-12-14T14:49:25.418Z,101656.00
2018-12-14T14:52:00.383Z,101646.00
2018-12-14T14:54:29.702Z,101652.00
2018-12-14T14:56:59.006Z,101654.00
2018-12-14T14:59:34.032Z,101658.00
2018-12-14T15:02:08.754Z,101660.00
2018-12-14T15:04:44.171Z,101660.00
2018-12-14T15:07:19.850Z,101658.00
2018-12-14T15:09:55.502Z,101663.00
2018-12-14T15:12:41.340Z,101668.00
2018-12-14T15:15:16.878Z,101656.00
2018-12-14T15:17:50.051Z,101663.00
2018-12-14T15:20:25.068Z,101665.00
2018-12-14T15:23:00.134Z,101669.00
2018-12-14T15:25:33.330Z,101676.00
2018-12-14T15:28:03.639Z,101601.00
2018-12-14T15:30:36.396Z,101672.00
2018-12-14T15:33:12.758Z,101672.00
2018-12-14T15:39:07.590Z,101681.00
2018-12-14T15:48:12.061Z,101682.00
2018-12-14T16:08:14.822Z,101679.00
2018-12-14T16:10:50.472Z,101691.00
2018-12-14T16:13:23.277Z,101684.00
2018-12-14T16:15:55.826Z,101682.00
2018-12-14T16:18:37.485Z,101672.00
2018-12-14T16:21:13.274Z,101669.00
2018-12-14T16:23:48.594Z,101671.00
2018-12-14T16:26:24.315Z,101681.00
2018-12-14T16:28:59.803Z,101676.00
2018-12-14T16:31:35.300Z,101680.00
2018-12-14T16:34:08.350Z,101684.00
2018-12-14T16:36:43.522Z,101684.00
2018-12-14T16:39:16.478Z,101691.00
2018-12-14T16:41:49.184Z,101696.00
2018-12-14T16:44:20.535Z,101696.00
2018-12-14T16:46:53.386Z,101707.00
2018-12-14T16:52:27.199Z,101694.00
2018-12-14T16:55:02.637Z,101697.00
2018-12-14T16:57:44.050Z,101708.00
2018-12-14T17:00:20.228Z,101705.00
2018-12-14T17:02:52.888Z,101676.00
2018-12-14T17:05:26.968Z,101704.00
2018-12-14T17:08:01.720Z,101709.00
2018-12-14T17:10:50.980Z,101708.00
2018-12-14T17:13:25.892Z,101712.00
2018-12-14T17:15:58.418Z,101716.00
2018-12-14T17:18:33.113Z,101709.00
2018-12-14T17:21:12.713Z,101705.00
2018-12-14T17:26:51.996Z,101706.00
2018-12-14T17:29:24.907Z,101709.00
2018-12-14T17:32:19.313Z,101712.00
2018-12-14T17:34:51.102Z,101710.00
2018-12-14T17:37:21.489Z,101723.00
2018-12-14T17:39:56.460Z,101716.00
2018-12-14T17:42:29.641Z,101721.00
2018-12-14T17:45:02.915Z,101724.00
2018-12-14T17:47:40.627Z,101711.00
2018-12-14T17:50:13.015Z,101715.00
2018-12-14T17:52:50.411Z,101707.00
2018-12-14T17:55:25.663Z,101704.00
2018-12-14T17:58:01.095Z,101724.00
2018-12-14T18:00:36.843Z,101723.00
2018-12-14T18:03:12.136Z,101723.00
2018-12-14T18:05:44.906Z,101735.00
2018-12-14T18:08:17.539Z,101723.00
2018-12-14T18:10:49.951Z,101731.00
2018-12-14T18:13:26.944Z,101739.00
2018-12-14T18:16:02.887Z,101732.00
2018-12-14T18:18:35.801Z,101714.00
2018-12-14T18:21:08.749Z,101748.00
2018-12-14T18:23:45.426Z,101746.00
2018-12-14T18:26:17.919Z,101749.00
2018-12-14T18:28:50.698Z,101738.00
2018-12-14T18:31:25.771Z,101751.00
2018-12-14T18:34:01.403Z,101750.00
2018-12-14T18:36:36.894Z,101758.00
2018-12-14T18:39:08.406Z,101750.00
2018-12-14T18:41:41.443Z,101747.00
2018-12-14T18:44:16.575Z,101754.00
2018-12-14T18:46:48.974Z,101757.00
2018-12-14T18:49:21.560Z,101756.00
2018-12-14T18:51:54.373Z,101763.00
2018-12-14T18:54:27.441Z,101764.00
2018-12-14T18:57:00.026Z,101755.00
2018-12-14T18:59:32.516Z,101767.00
2018-12-14T19:02:05.339Z,101771.00
2018-12-14T19:04:38.446Z,101778.00
2018-12-14T19:07:13.385Z,101780.00
2018-12-14T19:09:43.942Z,101778.00
2018-12-14T19:12:16.834Z,101786.00
2018-12-14T19:14:49.292Z,101786.00
2018-12-14T19:17:24.328Z,101795.00
2018-12-14T19:19:59.856Z,101802.00
2018-12-14T19:22:32.884Z,101803.00
2018-12-14T19:25:06.164Z,101801.00
2018-12-14T19:27:41.399Z,101803.00
2018-12-14T19:30:14.469Z,101799.00
2018-12-14T19:32:47.544Z,101816.00
2018-12-14T19:35:17.994Z,101805.00
2018-12-14T19:37:50.614Z,101812.00
2018-12-14T19:40:26.301Z,101812.00
2018-12-14T19:42:57.321Z,101812.00
2018-12-14T19:45:29.759Z,101818.00
2018-12-14T19:48:02.102Z,101813.00
2018-12-14T19:50:34.563Z,101813.00
2018-12-14T19:53:09.403Z,101818.00
2018-12-14T19:55:44.229Z,101823.00
2018-12-14T19:58:19.732Z,101815.00
2018-12-14T20:00:50.680Z,101753.00
2018-12-14T20:03:25.830Z,101818.00
2018-12-14T20:06:01.320Z,101814.00
2018-12-14T20:08:38.368Z,101820.00
2018-12-14T20:11:11.690Z,101822.00
2018-12-14T20:13:42.444Z,101816.00
2018-12-14T20:16:15.017Z,101824.00
2018-12-14T20:18:50.972Z,101824.00
2018-12-14T20:21:23.891Z,101827.00
2018-12-14T20:23:58.979Z,101818.00
2018-12-14T20:26:34.996Z,101816.00
2018-12-14T20:29:07.922Z,101821.00
2018-12-14T20:31:39.338Z,101746.00
2018-12-14T20:34:16.210Z,101822.00
2018-12-14T20:37:01.979Z,101826.00
2018-12-14T20:39:36.875Z,101824.00
2018-12-14T20:42:10.210Z,101825.00
2018-12-14T20:44:46.961Z,101815.00
2018-12-14T20:47:21.767Z,101817.00
2018-12-14T20:49:51.080Z,101807.00
2018-12-14T20:52:26.165Z,101820.00
2018-12-14T20:54:59.234Z,101818.00
2018-12-14T20:57:32.146Z,101823.00
2018-12-14T21:00:07.188Z,101808.00
2018-12-14T21:02:39.896Z,101810.00
2018-12-14T21:05:26.862Z,101817.00
2018-12-14T21:07:56.139Z,101821.00
2018-12-14T21:10:37.153Z,101822.00
2018-12-14T21:13:12.285Z,101812.00
2018-12-14T21:15:47.001Z,101817.00
2018-12-14T21:18:22.297Z,101806.00
2018-12-14T21:20:57.504Z,101808.00
2018-12-14T21:23:39.252Z,101804.00
2018-12-14T21:32:19.634Z,101819.00
2018-12-14T21:34:55.957Z,101801.00
2018-12-14T21:40:47.165Z,101795.00
2018-12-14T21:43:42.810Z,101796.00
2018-12-14T21:46:13.747Z,101795.00
2018-12-14T21:48:55.945Z,101795.00
2018-12-14T21:51:35.482Z,101789.00
2018-12-14T21:54:07.780Z,101779.00
2018-12-14T21:56:41.013Z,101788.00
2018-12-14T22:02:19.838Z,101792.00
2018-12-14T22:08:17.684Z,101790.00
2018-12-14T22:11:00.178Z,101789.00
2018-12-14T22:13:35.433Z,101795.00
2018-12-14T22:16:20.751Z,101798.00
2018-12-14T22:21:59.406Z,101791.00
2018-12-14T22:24:37.028Z,101788.00
2018-12-14T22:27:10.100Z,101795.00
2018-12-14T22:32:50.701Z,101784.00
2018-12-14T22:35:46.735Z,101782.00
2018-12-14T22:41:31.066Z,101774.00
2018-12-14T22:44:03.622Z,101774.00
2018-12-14T22:46:36.846Z,101776.00
2018-12-14T22:52:13.631Z,101780.00
2018-12-14T22:54:44.733Z,101764.00
2018-12-14T23:00:30.221Z,101769.00
2018-12-14T23:06:24.988Z,101776.00
2018-12-14T23:09:09.204Z,101773.00
2018-12-14T23:11:56.955Z,101772.00
2018-12-14T23:17:46.265Z,101769.00
2018-12-14T23:20:34.073Z,101769.00
2018-12-14T23:23:03.596Z,101782.00
2018-12-14T23:25:42.813Z,101776.00
2018-12-14T23:28:41.425Z,101768.00
2018-12-14T23:31:11.002Z,101769.00
2018-12-14T23:33:40.300Z,101772.00
2018-12-14T23:36:09.624Z,101772.00
2018-12-14T23:44:51.041Z,101773.00
2018-12-14T23:47:23.811Z,101776.00
2018-12-14T23:49:53.108Z,101770.00
2018-12-14T23:52:42.439Z,101776.00
2018-12-14T23:55:11.769Z,101780.00
2018-12-14T23:57:50.939Z,101784.00
